Ruston, LA

7:16 PM CDT on July 07, 2015 (GMT -0500)
Ruston Regional | | Change Station
CLOSE
Current Station
Airport
Location: Ruston,
Elevation: 312 ft
Nearby Weather Stations

Elev 312 ft 32.51 °N, 92.59 °W | Updated 21 minutes ago

Partly Cloudy
Partly Cloudy
90 °F
Feels Like 100 °F
N
10
Wind Variable Wind from South

Today
High -- | Low -- °F
--% Chance of Precip.
Yesterday
High -- | Low -- °F
Precip. -- in
6:09 AM 8:21 PM
Waning Gibbous, 60% visible
Pressure 30.02 in
Visibility 10.0 miles
Clouds Clear
Heat Index 100 °F
Dew Point 74 °F
Humidity 59%
Rainfall 0.00 in
Snow Depth Not available.
UV 1 out of 12
Pollen 3.70 out of 12
Air Quality Not available.
Flu Activity Not available.
METAR KRSN 072355Z AUTO 18009KT 10SM CLR 32/23 A3002 RMK AO2 T03240234 10349 20324

More Conditions Fewer Conditions

Pressure 30.02 in
Visibility 10.0 miles
Clouds Clear
Heat Index 100 °F
Dew Point 74 °F
Humidity 59%
Rainfall 0.00 in
Snow Depth Not available.
UV 1 out of 12
Pollen 3.70 out of 12
Air Quality Not available.
Flu Activity Not available.
METAR KRSN 072355Z AUTO 18009KT 10SM CLR 32/23 A3002 RMK AO2 T03240234 10349 20324

More Conditions Fewer Conditions

Nowcast | as of 7:10 PM CDT on July 7, 2015

Widely scattered showers and isolated thunderstorms will linger into the early evening hours. The activity is more concentrated across portions northeast Texas...from Yantis...to Tyler...to near Pittsburg and Maud. Elsewhere...isolated showers are very sprarse. If thunder roars...go indoors. Any downpour may gust the wind to 30 mph and bring a tenth of an inch. The strongest thunderstorm of this activity has even produced some pea sized hail on the west side of Tyler. Most of this will fade away by sunset.

×

10-Day Weather Forecast

×

Almanac

Astronomy

Jul. 07, 2015 Rise Set
Actual Time
Civil Twilight
Nautical Twilight
Astronomical Twilight
Moon
Length of Visible Light
Length of Day
Tomorrow will be .
, % of the Moon is Illuminated

Today's Extremes

State Highs State Lows

Community

WunderPhotos

Upload Photos

1,835,970 photos uploaded!

WunderBlogs® & News

Nearby

Air Quality

  Air Quality AQ Index Pollutant
Not available.

Snow Depth

Station Depth Elevation

Earthquake Activity

City Distance Mag. Time & Date
Minimum magnitude displayed is 2.5.

Coastal Water Temperatures

Place Temperature

Stations

Nearby Weather Stations

Station Location Temp. Windchill Dew Point Humidity Wind Precip. Elev Updated Type